sensor_id;sensor_type;location;lat;lon;timestamp;pressure;altitude;pressure_sealevel;temperature;humidity
29733;BME280;16643;43.158;25.302;2022-08-19T00:00:50;97594.69;;;25.93;59.05
29733;BME280;16643;43.158;25.302;2022-08-19T00:03:16;97602.38;;;25.78;59.72
29733;BME280;16643;43.158;25.302;2022-08-19T00:05:42;97591.59;;;25.62;60.48
29733;BME280;16643;43.158;25.302;2022-08-19T00:08:07;97613.13;;;25.68;60.54
29733;BME280;16643;43.158;25.302;2022-08-19T00:10:33;97585.78;;;25.49;60.96
29733;BME280;16643;43.158;25.302;2022-08-19T00:12:59;97587.28;;;25.51;60.73
29733;BME280;16643;43.158;25.302;2022-08-19T00:15:25;97602.91;;;25.46;61.39
29733;BME280;16643;43.158;25.302;2022-08-19T00:17:50;97576.31;;;25.19;61.79
29733;BME280;16643;43.158;25.302;2022-08-19T00:20:20;97577.16;;;25.19;62.18
29733;BME280;16643;43.158;25.302;2022-08-19T00:22:46;97573.66;;;25.19;62.51
29733;BME280;16643;43.158;25.302;2022-08-19T00:25:13;97602.72;;;25.30;62.79
29733;BME280;16643;43.158;25.302;2022-08-19T00:27:39;97601.38;;;25.26;62.80
29733;BME280;16643;43.158;25.302;2022-08-19T00:30:06;97602.66;;;25.22;63.57
29733;BME280;16643;43.158;25.302;2022-08-19T00:32:32;97613.84;;;25.25;63.38
29733;BME280;16643;43.158;25.302;2022-08-19T00:34:59;97582.69;;;25.08;63.46
29733;BME280;16643;43.158;25.302;2022-08-19T00:37:25;97588.84;;;25.09;64.03
29733;BME280;16643;43.158;25.302;2022-08-19T00:39:52;97603.63;;;25.21;64.06
29733;BME280;16643;43.158;25.302;2022-08-19T00:42:20;97585.22;;;25.10;63.86
29733;BME280;16643;43.158;25.302;2022-08-19T00:44:45;97601.66;;;25.23;64.22
29733;BME280;16643;43.158;25.302;2022-08-19T00:47:12;97571.44;;;24.96;64.44
29733;BME280;16643;43.158;25.302;2022-08-19T00:49:42;97589.69;;;25.09;64.45
29733;BME280;16643;43.158;25.302;2022-08-19T00:52:21;97589.63;;;25.01;64.58
29733;BME280;16643;43.158;25.302;2022-08-19T00:54:48;97598.31;;;25.21;64.42
29733;BME280;16643;43.158;25.302;2022-08-19T00:57:17;97577.78;;;25.13;64.10
29733;BME280;16643;43.158;25.302;2022-08-19T00:59:46;97572.75;;;25.10;64.40
29733;BME280;16643;43.158;25.302;2022-08-19T01:02:14;97576.41;;;25.09;64.35
29733;BME280;16643;43.158;25.302;2022-08-19T01:04:40;97586.31;;;25.17;64.67
29733;BME280;16643;43.158;25.302;2022-08-19T01:07:06;97588.78;;;25.18;64.81
29733;BME280;16643;43.158;25.302;2022-08-19T01:09:32;97574.56;;;25.10;64.34
29733;BME280;16643;43.158;25.302;2022-08-19T01:11:58;97578.69;;;25.22;64.34
29733;BME280;16643;43.158;25.302;2022-08-19T01:14:24;97551.91;;;25.06;64.26
29733;BME280;16643;43.158;25.302;2022-08-19T01:16:51;97579.25;;;25.25;63.79
29733;BME280;16643;43.158;25.302;2022-08-19T01:21:53;97591.78;;;25.51;62.83
29733;BME280;16643;43.158;25.302;2022-08-19T01:24:19;97589.94;;;25.51;62.41
29733;BME280;16643;43.158;25.302;2022-08-19T01:26:47;97609.47;;;25.70;62.11
29733;BME280;16643;43.158;25.302;2022-08-19T01:29:13;97602.63;;;25.67;61.80
29733;BME280;16643;43.158;25.302;2022-08-19T01:31:39;97591.59;;;25.62;61.85
29733;BME280;16643;43.158;25.302;2022-08-19T01:34:05;97611.28;;;25.69;61.63
29733;BME280;16643;43.158;25.302;2022-08-19T01:36:41;97608.22;;;25.64;61.40
29733;BME280;16643;43.158;25.302;2022-08-19T01:39:11;97615.25;;;25.65;62.05
29733;BME280;16643;43.158;25.302;2022-08-19T01:41:37;97622.09;;;25.67;62.17
29733;BME280;16643;43.158;25.302;2022-08-19T01:44:04;97631.75;;;25.68;62.40
29733;BME280;16643;43.158;25.302;2022-08-19T01:46:31;97627.13;;;25.71;62.34
29733;BME280;16643;43.158;25.302;2022-08-19T01:48:57;97618.38;;;25.60;62.12
29733;BME280;16643;43.158;25.302;2022-08-19T01:51:23;97576.19;;;25.38;62.47
29733;BME280;16643;43.158;25.302;2022-08-19T01:53:51;97619.88;;;25.63;62.49
29733;BME280;16643;43.158;25.302;2022-08-19T01:56:17;97631.38;;;25.63;62.32
29733;BME280;16643;43.158;25.302;2022-08-19T01:58:47;97638.69;;;25.61;62.66
29733;BME280;16643;43.158;25.302;2022-08-19T02:01:16;97635.00;;;25.45;63.13
29733;BME280;16643;43.158;25.302;2022-08-19T02:03:42;97623.50;;;25.26;63.12
29733;BME280;16643;43.158;25.302;2022-08-19T02:06:08;97624.47;;;25.25;63.18
29733;BME280;16643;43.158;25.302;2022-08-19T02:08:37;97605.28;;;25.04;63.24
29733;BME280;16643;43.158;25.302;2022-08-19T02:11:04;97630.66;;;25.26;63.85
29733;BME280;16643;43.158;25.302;2022-08-19T02:13:30;97607.34;;;25.10;63.73
29733;BME280;16643;43.158;25.302;2022-08-19T02:15:56;97629.41;;;25.20;63.91
29733;BME280;16643;43.158;25.302;2022-08-19T02:18:23;97603.06;;;25.00;64.58
29733;BME280;16643;43.158;25.302;2022-08-19T02:20:49;97621.25;;;25.04;64.19
29733;BME280;16643;43.158;25.302;2022-08-19T02:23:16;97624.75;;;25.05;64.32
29733;BME280;16643;43.158;25.302;2022-08-19T02:25:44;97619.88;;;25.00;64.20
29733;BME280;16643;43.158;25.302;2022-08-19T02:28:10;97646.69;;;25.07;63.74
29733;BME280;16643;43.158;25.302;2022-08-19T02:30:38;97644.38;;;25.04;63.96
29733;BME280;16643;43.158;25.302;2022-08-19T02:33:04;97635.69;;;25.02;63.89
29733;BME280;16643;43.158;25.302;2022-08-19T02:35:30;97639.03;;;25.04;64.14
29733;BME280;16643;43.158;25.302;2022-08-19T02:37:56;97624.94;;;24.93;64.39
29733;BME280;16643;43.158;25.302;2022-08-19T02:40:48;97636.97;;;24.88;64.71
29733;BME280;16643;43.158;25.302;2022-08-19T02:43:15;97611.31;;;24.69;64.60
29733;BME280;16643;43.158;25.302;2022-08-19T02:45:41;97607.97;;;24.67;64.92
29733;BME280;16643;43.158;25.302;2022-08-19T02:48:07;97640.47;;;24.88;65.38
29733;BME280;16643;43.158;25.302;2022-08-19T02:50:37;97619.72;;;24.65;65.35
29733;BME280;16643;43.158;25.302;2022-08-19T02:53:04;97620.31;;;24.58;65.65
29733;BME280;16643;43.158;25.302;2022-08-19T02:55:29;97571.72;;;24.29;65.39
29733;BME280;16643;43.158;25.302;2022-08-19T02:57:55;97628.56;;;24.55;65.12
29733;BME280;16643;43.158;25.302;2022-08-19T03:00:22;97628.28;;;24.58;65.54
29733;BME280;16643;43.158;25.302;2022-08-19T03:02:49;97644.09;;;24.60;65.04
29733;BME280;16643;43.158;25.302;2022-08-19T03:05:15;97655.84;;;24.57;64.98
29733;BME280;16643;43.158;25.302;2022-08-19T03:07:41;97600.81;;;24.21;64.78
29733;BME280;16643;43.158;25.302;2022-08-19T03:10:07;97659.63;;;24.55;64.85
29733;BME280;16643;43.158;25.302;2022-08-19T03:12:36;97665.38;;;24.60;64.79
29733;BME280;16643;43.158;25.302;2022-08-19T03:15:02;97636.31;;;24.49;64.09
29733;BME280;16643;43.158;25.302;2022-08-19T03:17:28;97642.28;;;24.51;64.36
29733;BME280;16643;43.158;25.302;2022-08-19T03:19:53;97624.31;;;24.35;64.30
29733;BME280;16643;43.158;25.302;2022-08-19T03:22:19;97620.22;;;24.41;63.92
29733;BME280;16643;43.158;25.302;2022-08-19T03:24:45;97670.25;;;24.65;64.32
29733;BME280;16643;43.158;25.302;2022-08-19T03:27:10;97651.13;;;24.42;63.87
29733;BME280;16643;43.158;25.302;2022-08-19T03:29:37;97670.16;;;24.47;63.91
29733;BME280;16643;43.158;25.302;2022-08-19T03:32:05;97668.91;;;24.41;64.25
29733;BME280;16643;43.158;25.302;2022-08-19T03:34:33;97680.50;;;24.50;64.75
29733;BME280;16643;43.158;25.302;2022-08-19T03:37:06;97679.78;;;24.57;64.62
29733;BME280;16643;43.158;25.302;2022-08-19T03:39:33;97680.72;;;24.66;64.71
29733;BME280;16643;43.158;25.302;2022-08-19T03:41:59;97673.63;;;24.57;64.98
29733;BME280;16643;43.158;25.302;2022-08-19T03:44:29;97682.47;;;24.48;64.59
29733;BME280;16643;43.158;25.302;2022-08-19T03:46:57;97681.31;;;24.50;65.20
29733;BME280;16643;43.158;25.302;2022-08-19T03:49:25;97682.31;;;24.59;64.98
29733;BME280;16643;43.158;25.302;2022-08-19T03:51:53;97663.06;;;24.38;64.94
29733;BME280;16643;43.158;25.302;2022-08-19T03:54:21;97691.13;;;24.59;65.24
29733;BME280;16643;43.158;25.302;2022-08-19T03:56:49;97701.44;;;24.63;65.60
29733;BME280;16643;43.158;25.302;2022-08-19T03:59:19;97684.69;;;24.52;65.26
29733;BME280;16643;43.158;25.302;2022-08-19T04:01:45;97626.72;;;24.09;66.18
29733;BME280;16643;43.158;25.302;2022-08-19T04:04:11;97697.38;;;24.68;65.45
29733;BME280;16643;43.158;25.302;2022-08-19T04:06:38;97672.97;;;24.45;65.39
29733;BME280;16643;43.158;25.302;2022-08-19T04:09:08;97686.38;;;24.44;65.52
29733;BME280;16643;43.158;25.302;2022-08-19T04:11:38;97699.44;;;24.37;66.18
29733;BME280;16643;43.158;25.302;2022-08-19T04:14:08;97703.47;;;24.41;66.37
29733;BME280;16643;43.158;25.302;2022-08-19T04:16:34;97678.03;;;24.29;66.00
29733;BME280;16643;43.158;25.302;2022-08-19T04:19:03;97708.59;;;24.52;65.87
29733;BME280;16643;43.158;25.302;2022-08-19T04:21:29;97683.00;;;24.51;65.42
29733;BME280;16643;43.158;25.302;2022-08-19T04:23:56;97694.16;;;24.65;64.98
29733;BME280;16643;43.158;25.302;2022-08-19T04:26:25;97679.19;;;24.64;65.53
29733;BME280;16643;43.158;25.302;2022-08-19T04:28:52;97709.78;;;24.87;65.04
29733;BME280;16643;43.158;25.302;2022-08-19T04:31:21;97688.53;;;24.77;64.66
29733;BME280;16643;43.158;25.302;2022-08-19T04:33:47;97677.19;;;24.75;64.73
29733;BME280;16643;43.158;25.302;2022-08-19T04:36:21;97697.31;;;24.87;64.98
29733;BME280;16643;43.158;25.302;2022-08-19T04:38:48;97706.81;;;25.00;65.19
29733;BME280;16643;43.158;25.302;2022-08-19T04:41:14;97705.28;;;24.87;65.68
29733;BME280;16643;43.158;25.302;2022-08-19T04:43:59;97691.47;;;24.93;64.84
29733;BME280;16643;43.158;25.302;2022-08-19T04:46:25;97704.66;;;25.13;64.17
29733;BME280;16643;43.158;25.302;2022-08-19T04:48:50;97718.66;;;25.42;63.53
29733;BME280;16643;43.158;25.302;2022-08-19T04:51:16;97685.16;;;25.40;61.75
29733;BME280;16643;43.158;25.302;2022-08-19T04:53:42;97722.16;;;25.70;61.68
29733;BME280;16643;43.158;25.302;2022-08-19T04:56:11;97715.63;;;25.82;61.71
29733;BME280;16643;43.158;25.302;2022-08-19T04:58:38;97725.94;;;25.95;61.27
29733;BME280;16643;43.158;25.302;2022-08-19T05:01:04;97713.81;;;26.00;61.04
29733;BME280;16643;43.158;25.302;2022-08-19T05:03:30;97726.97;;;26.20;61.01
29733;BME280;16643;43.158;25.302;2022-08-19T05:06:04;97721.28;;;26.32;59.77
29733;BME280;16643;43.158;25.302;2022-08-19T05:08:32;97712.81;;;26.37;59.64
29733;BME280;16643;43.158;25.302;2022-08-19T05:10:59;97692.78;;;26.33;59.23
29733;BME280;16643;43.158;25.302;2022-08-19T05:13:25;97698.69;;;26.45;59.51
29733;BME280;16643;43.158;25.302;2022-08-19T05:15:58;97721.00;;;26.61;59.27
29733;BME280;16643;43.158;25.302;2022-08-19T05:18:25;97725.25;;;26.72;59.41
29733;BME280;16643;43.158;25.302;2022-08-19T05:21:13;97720.66;;;26.64;60.01
29733;BME280;16643;43.158;25.302;2022-08-19T05:23:57;97732.81;;;26.59;59.47
29733;BME280;16643;43.158;25.302;2022-08-19T05:26:26;97697.56;;;26.47;59.01
29733;BME280;16643;43.158;25.302;2022-08-19T05:28:53;97721.16;;;26.60;59.09
29733;BME280;16643;43.158;25.302;2022-08-19T05:31:19;97716.00;;;26.66;58.95
29733;BME280;16643;43.158;25.302;2022-08-19T05:33:45;97699.13;;;26.58;58.54
29733;BME280;16643;43.158;25.302;2022-08-19T05:36:11;97724.91;;;26.75;58.33
29733;BME280;16643;43.158;25.302;2022-08-19T05:38:37;97699.28;;;26.82;58.11
29733;BME280;16643;43.158;25.302;2022-08-19T05:41:10;97721.28;;;27.10;57.18
29733;BME280;16643;43.158;25.302;2022-08-19T05:43:36;97716.66;;;27.20;57.05
29733;BME280;16643;43.158;25.302;2022-08-19T05:46:03;97731.00;;;27.53;56.20
29733;BME280;16643;43.158;25.302;2022-08-19T05:48:32;97727.72;;;27.59;56.47
29733;BME280;16643;43.158;25.302;2022-08-19T05:51:05;97723.09;;;27.86;55.44
29733;BME280;16643;43.158;25.302;2022-08-19T05:53:35;97715.94;;;28.02;54.25
29733;BME280;16643;43.158;25.302;2022-08-19T05:56:08;97738.06;;;28.21;54.46
29733;BME280;16643;43.158;25.302;2022-08-19T05:58:36;97740.22;;;28.25;53.72
29733;BME280;16643;43.158;25.302;2022-08-19T06:01:02;97718.47;;;28.36;53.17
29733;BME280;16643;43.158;25.302;2022-08-19T06:03:33;97732.19;;;28.49;52.45
29733;BME280;16643;43.158;25.302;2022-08-19T06:06:00;97718.97;;;28.64;52.55
29733;BME280;16643;43.158;25.302;2022-08-19T06:08:26;97724.31;;;28.88;51.69
29733;BME280;16643;43.158;25.302;2022-08-19T06:10:53;97710.75;;;28.98;51.15
29733;BME280;16643;43.158;25.302;2022-08-19T06:13:19;97667.44;;;28.78;51.04
29733;BME280;16643;43.158;25.302;2022-08-19T06:15:45;97723.22;;;29.22;49.75
29733;BME280;16643;43.158;25.302;2022-08-19T06:18:13;97735.97;;;29.12;50.88
29733;BME280;16643;43.158;25.302;2022-08-19T06:20:39;97735.59;;;29.23;49.87
29733;BME280;16643;43.158;25.302;2022-08-19T06:23:05;97717.28;;;29.35;49.02
29733;BME280;16643;43.158;25.302;2022-08-19T06:25:30;97733.50;;;29.49;48.57
29733;BME280;16643;43.158;25.302;2022-08-19T06:27:56;97719.88;;;29.20;49.07
29733;BME280;16643;43.158;25.302;2022-08-19T06:30:22;97726.47;;;28.93;49.76
29733;BME280;16643;43.158;25.302;2022-08-19T06:32:49;97740.97;;;29.23;49.14
29733;BME280;16643;43.158;25.302;2022-08-19T06:35:15;97698.72;;;29.41;48.20
29733;BME280;16643;43.158;25.302;2022-08-19T06:37:41;97673.59;;;29.34;48.29
29733;BME280;16643;43.158;25.302;2022-08-19T06:40:08;97743.94;;;29.75;47.50
29733;BME280;16643;43.158;25.302;2022-08-19T06:42:36;97705.03;;;29.48;47.62
29733;BME280;16643;43.158;25.302;2022-08-19T06:45:04;97734.47;;;29.87;47.04
29733;BME280;16643;43.158;25.302;2022-08-19T06:47:30;97726.72;;;30.23;45.84
29733;BME280;16643;43.158;25.302;2022-08-19T06:49:58;97744.94;;;30.51;45.04
29733;BME280;16643;43.158;25.302;2022-08-19T06:52:30;97737.06;;;30.26;44.28
29733;BME280;16643;43.158;25.302;2022-08-19T06:54:56;97752.31;;;30.49;45.00
29733;BME280;16643;43.158;25.302;2022-08-19T06:57:24;97742.72;;;30.77;45.07
29733;BME280;16643;43.158;25.302;2022-08-19T06:59:49;97732.25;;;30.97;43.73
29733;BME280;16643;43.158;25.302;2022-08-19T07:02:15;97734.81;;;31.13;41.98
29733;BME280;16643;43.158;25.302;2022-08-19T07:04:41;97736.38;;;31.37;42.05
29733;BME280;16643;43.158;25.302;2022-08-19T07:07:10;97734.06;;;31.19;41.57
29733;BME280;16643;43.158;25.302;2022-08-19T07:09:40;97736.94;;;31.47;40.71
29733;BME280;16643;43.158;25.302;2022-08-19T07:12:07;97742.38;;;31.54;41.42
29733;BME280;16643;43.158;25.302;2022-08-19T07:14:34;97734.59;;;31.59;41.07
29733;BME280;16643;43.158;25.302;2022-08-19T07:17:08;97694.13;;;31.01;41.72
29733;BME280;16643;43.158;25.302;2022-08-19T07:19:35;97740.25;;;31.64;41.38
29733;BME280;16643;43.158;25.302;2022-08-19T07:22:03;97745.72;;;31.70;41.13
29733;BME280;16643;43.158;25.302;2022-08-19T07:24:29;97697.34;;;31.41;40.35
29733;BME280;16643;43.158;25.302;2022-08-19T07:26:57;97746.47;;;32.00;40.69
29733;BME280;16643;43.158;25.302;2022-08-19T07:29:27;97724.50;;;31.31;39.82
29733;BME280;16643;43.158;25.302;2022-08-19T07:31:54;97735.97;;;31.55;39.47
29733;BME280;16643;43.158;25.302;2022-08-19T07:34:24;97749.47;;;31.91;40.06
29733;BME280;16643;43.158;25.302;2022-08-19T07:36:51;97731.16;;;31.50;41.00
29733;BME280;16643;43.158;25.302;2022-08-19T07:39:20;97753.41;;;31.73;39.92
29733;BME280;16643;43.158;25.302;2022-08-19T07:41:46;97729.66;;;31.77;39.28
29733;BME280;16643;43.158;25.302;2022-08-19T07:44:12;97715.50;;;32.04;39.95
29733;BME280;16643;43.158;25.302;2022-08-19T07:46:40;97736.34;;;32.66;38.86
29733;BME280;16643;43.158;25.302;2022-08-19T07:49:07;97748.13;;;32.87;36.83
29733;BME280;16643;43.158;25.302;2022-08-19T07:51:34;97748.84;;;32.95;37.22
29733;BME280;16643;43.158;25.302;2022-08-19T07:54:00;97693.75;;;32.49;35.20
29733;BME280;16643;43.158;25.302;2022-08-19T07:56:26;97746.22;;;33.08;35.54
29733;BME280;16643;43.158;25.302;2022-08-19T07:58:52;97756.75;;;33.31;36.36
29733;BME280;16643;43.158;25.302;2022-08-19T08:01:21;97755.03;;;32.68;35.45
29733;BME280;16643;43.158;25.302;2022-08-19T08:03:48;97748.16;;;32.01;36.12
29733;BME280;16643;43.158;25.302;2022-08-19T08:06:33;97754.22;;;31.89;36.78
29733;BME280;16643;43.158;25.302;2022-08-19T08:09:21;97741.84;;;32.30;36.36
29733;BME280;16643;43.158;25.302;2022-08-19T08:12:01;97746.81;;;32.55;36.69
29733;BME280;16643;43.158;25.302;2022-08-19T08:14:35;97743.09;;;32.77;35.78
29733;BME280;16643;43.158;25.302;2022-08-19T08:17:03;97743.69;;;33.00;34.14
29733;BME280;16643;43.158;25.302;2022-08-19T08:19:29;97723.31;;;32.91;35.29
29733;BME280;16643;43.158;25.302;2022-08-19T08:21:57;97732.09;;;32.72;34.94
29733;BME280;16643;43.158;25.302;2022-08-19T08:24:28;97734.69;;;32.01;35.46
29733;BME280;16643;43.158;25.302;2022-08-19T08:26:57;97689.00;;;32.08;36.32
29733;BME280;16643;43.158;25.302;2022-08-19T08:29:24;97726.59;;;32.87;36.44
29733;BME280;16643;43.158;25.302;2022-08-19T08:31:51;97731.97;;;33.14;34.61
29733;BME280;16643;43.158;25.302;2022-08-19T08:34:16;97716.81;;;32.58;35.15
29733;BME280;16643;43.158;25.302;2022-08-19T08:36:44;97739.38;;;33.06;37.05
29733;BME280;16643;43.158;25.302;2022-08-19T08:39:16;97727.81;;;33.18;35.07
29733;BME280;16643;43.158;25.302;2022-08-19T08:47:04;97747.25;;;33.76;34.21
29733;BME280;16643;43.158;25.302;2022-08-19T08:49:47;97733.41;;;33.99;34.53
29733;BME280;16643;43.158;25.302;2022-08-19T08:52:20;97734.06;;;34.08;33.78
29733;BME280;16643;43.158;25.302;2022-08-19T08:54:50;97724.31;;;34.13;32.36
29733;BME280;16643;43.158;25.302;2022-08-19T08:57:39;97719.50;;;34.09;33.69
29733;BME280;16643;43.158;25.302;2022-08-19T09:00:13;97739.31;;;34.36;33.48
29733;BME280;16643;43.158;25.302;2022-08-19T09:02:40;97721.41;;;34.21;33.22
29733;BME280;16643;43.158;25.302;2022-08-19T09:05:06;97724.91;;;34.09;33.76
29733;BME280;16643;43.158;25.302;2022-08-19T09:10:13;97730.75;;;34.12;33.28
29733;BME280;16643;43.158;25.302;2022-08-19T09:12:57;97733.03;;;34.15;33.69
29733;BME280;16643;43.158;25.302;2022-08-19T09:15:33;97728.34;;;34.50;33.64
29733;BME280;16643;43.158;25.302;2022-08-19T09:18:01;97732.69;;;34.45;33.50
29733;BME280;16643;43.158;25.302;2022-08-19T09:20:27;97719.81;;;34.40;32.96
29733;BME280;16643;43.158;25.302;2022-08-19T09:22:53;97721.25;;;34.30;33.97
29733;BME280;16643;43.158;25.302;2022-08-19T09:25:20;97734.75;;;34.56;33.42
29733;BME280;16643;43.158;25.302;2022-08-19T09:27:51;97736.00;;;34.60;32.47
29733;BME280;16643;43.158;25.302;2022-08-19T09:30:24;97725.63;;;34.70;32.80
29733;BME280;16643;43.158;25.302;2022-08-19T09:32:51;97730.63;;;34.93;33.15
29733;BME280;16643;43.158;25.302;2022-08-19T09:35:24;97722.06;;;35.03;32.53
29733;BME280;16643;43.158;25.302;2022-08-19T09:37:51;97724.53;;;35.17;32.92
29733;BME280;16643;43.158;25.302;2022-08-19T09:40:17;97723.09;;;35.28;32.38
29733;BME280;16643;43.158;25.302;2022-08-19T09:42:44;97685.84;;;35.17;32.32
29733;BME280;16643;43.158;25.302;2022-08-19T09:45:16;97718.22;;;35.50;32.23
29733;BME280;16643;43.158;25.302;2022-08-19T09:47:42;97712.84;;;35.43;32.39
29733;BME280;16643;43.158;25.302;2022-08-19T09:50:10;97725.03;;;35.65;32.42
29733;BME280;16643;43.158;25.302;2022-08-19T09:52:38;97713.09;;;35.80;32.38
29733;BME280;16643;43.158;25.302;2022-08-19T09:55:08;97720.72;;;35.96;31.60
29733;BME280;16643;43.158;25.302;2022-08-19T09:57:34;97706.66;;;35.81;31.79
29733;BME280;16643;43.158;25.302;2022-08-19T10:00:00;97702.06;;;35.88;31.49
29733;BME280;16643;43.158;25.302;2022-08-19T10:02:26;97713.22;;;35.98;32.26
29733;BME280;16643;43.158;25.302;2022-08-19T10:04:52;97699.91;;;35.96;31.79
29733;BME280;16643;43.158;25.302;2022-08-19T10:07:37;97717.41;;;36.32;30.78
29733;BME280;16643;43.158;25.302;2022-08-19T10:10:06;97700.59;;;36.48;31.40
29733;BME280;16643;43.158;25.302;2022-08-19T10:12:33;97714.97;;;36.49;30.57
29733;BME280;16643;43.158;25.302;2022-08-19T10:14:59;97703.38;;;36.03;31.06
29733;BME280;16643;43.158;25.302;2022-08-19T10:17:26;97684.88;;;35.62;32.39
29733;BME280;16643;43.158;25.302;2022-08-19T10:19:51;97696.25;;;35.26;32.99
29733;BME280;16643;43.158;25.302;2022-08-19T10:22:18;97693.91;;;35.37;32.87
29733;BME280;16643;43.158;25.302;2022-08-19T10:24:45;97682.16;;;35.62;32.37
29733;BME280;16643;43.158;25.302;2022-08-19T10:27:11;97689.97;;;35.84;31.47
29733;BME280;16643;43.158;25.302;2022-08-19T10:29:38;97691.75;;;35.58;30.29
29733;BME280;16643;43.158;25.302;2022-08-19T10:32:06;97677.38;;;35.64;31.21
29733;BME280;16643;43.158;25.302;2022-08-19T10:34:33;97687.00;;;35.92;31.57
29733;BME280;16643;43.158;25.302;2022-08-19T10:36:59;97684.63;;;35.77;31.09
29733;BME280;16643;43.158;25.302;2022-08-19T10:39:30;97693.69;;;35.89;31.06
29733;BME280;16643;43.158;25.302;2022-08-19T10:41:56;97670.59;;;35.87;31.83
29733;BME280;16643;43.158;25.302;2022-08-19T10:44:22;97675.41;;;36.23;32.16
29733;BME280;16643;43.158;25.302;2022-08-19T10:46:49;97688.66;;;35.93;31.05
29733;BME280;16643;43.158;25.302;2022-08-19T10:49:15;97678.97;;;35.27;32.03
29733;BME280;16643;43.158;25.302;2022-08-19T10:51:41;97677.00;;;35.48;32.25
29733;BME280;16643;43.158;25.302;2022-08-19T10:54:25;97666.16;;;35.99;31.78
29733;BME280;16643;43.158;25.302;2022-08-19T10:57:15;97659.00;;;36.05;30.95
29733;BME280;16643;43.158;25.302;2022-08-19T10:59:41;97688.38;;;36.08;30.52
29733;BME280;16643;43.158;25.302;2022-08-19T11:02:09;97658.81;;;35.75;31.18
29733;BME280;16643;43.158;25.302;2022-08-19T11:04:36;97669.03;;;36.04;30.96
29733;BME280;16643;43.158;25.302;2022-08-19T11:07:04;97679.47;;;36.32;31.12
29733;BME280;16643;43.158;25.302;2022-08-19T11:09:29;97671.50;;;36.37;30.80
29733;BME280;16643;43.158;25.302;2022-08-19T11:11:55;97674.91;;;36.32;30.19
29733;BME280;16643;43.158;25.302;2022-08-19T11:14:22;97674.00;;;36.38;29.73
29733;BME280;16643;43.158;25.302;2022-08-19T11:16:49;97640.28;;;36.03;30.48
29733;BME280;16643;43.158;25.302;2022-08-19T11:19:16;97660.59;;;36.19;29.75
29733;BME280;16643;43.158;25.302;2022-08-19T11:21:46;97649.47;;;36.33;30.00
29733;BME280;16643;43.158;25.302;2022-08-19T11:24:18;97661.28;;;36.64;30.08
29733;BME280;16643;43.158;25.302;2022-08-19T11:26:46;97667.44;;;36.78;29.47
29733;BME280;16643;43.158;25.302;2022-08-19T11:29:15;97629.84;;;36.81;29.90
29733;BME280;16643;43.158;25.302;2022-08-19T11:31:43;97654.41;;;37.04;29.53
29733;BME280;16643;43.158;25.302;2022-08-19T11:34:12;97655.94;;;37.00;28.23
29733;BME280;16643;43.158;25.302;2022-08-19T11:36:40;97654.00;;;36.83;28.89
29733;BME280;16643;43.158;25.302;2022-08-19T11:39:08;97643.16;;;36.08;28.84
29733;BME280;16643;43.158;25.302;2022-08-19T11:41:35;97641.47;;;36.38;29.21
29733;BME280;16643;43.158;25.302;2022-08-19T11:44:01;97630.44;;;35.84;29.79
29733;BME280;16643;43.158;25.302;2022-08-19T11:46:28;97646.75;;;36.02;29.14
29733;BME280;16643;43.158;25.302;2022-08-19T11:48:56;97643.56;;;35.80;29.17
29733;BME280;16643;43.158;25.302;2022-08-19T11:51:22;97637.69;;;36.21;29.27
29733;BME280;16643;43.158;25.302;2022-08-19T11:53:50;97626.44;;;36.43;28.64
29733;BME280;16643;43.158;25.302;2022-08-19T11:56:17;97618.31;;;36.43;29.41
29733;BME280;16643;43.158;25.302;2022-08-19T11:58:43;97622.41;;;36.52;29.14
29733;BME280;16643;43.158;25.302;2022-08-19T12:01:13;97637.94;;;36.63;29.57
29733;BME280;16643;43.158;25.302;2022-08-19T12:03:41;97615.72;;;36.54;29.15
29733;BME280;16643;43.158;25.302;2022-08-19T12:06:09;97614.91;;;36.29;28.86
29733;BME280;16643;43.158;25.302;2022-08-19T12:08:37;97619.81;;;36.38;29.43
29733;BME280;16643;43.158;25.302;2022-08-19T12:11:03;97628.16;;;36.80;28.23
29733;BME280;16643;43.158;25.302;2022-08-19T12:13:30;97635.41;;;37.04;28.52
29733;BME280;16643;43.158;25.302;2022-08-19T12:15:56;97618.25;;;37.11;27.87
29733;BME280;16643;43.158;25.302;2022-08-19T12:18:22;97616.75;;;36.96;29.00
29733;BME280;16643;43.158;25.302;2022-08-19T12:20:50;97606.44;;;36.62;28.79
29733;BME280;16643;43.158;25.302;2022-08-19T12:23:16;97611.41;;;36.90;28.46
29733;BME280;16643;43.158;25.302;2022-08-19T12:25:47;97611.31;;;36.96;27.76
29733;BME280;16643;43.158;25.302;2022-08-19T12:28:16;97604.25;;;36.77;27.38
29733;BME280;16643;43.158;25.302;2022-08-19T12:30:42;97621.34;;;36.78;28.22
29733;BME280;16643;43.158;25.302;2022-08-19T12:33:08;97600.63;;;36.40;27.90
29733;BME280;16643;43.158;25.302;2022-08-19T12:35:33;97611.72;;;36.57;27.67
29733;BME280;16643;43.158;25.302;2022-08-19T12:37:59;97566.22;;;36.59;28.27
29733;BME280;16643;43.158;25.302;2022-08-19T12:40:27;97593.91;;;36.67;28.05
29733;BME280;16643;43.158;25.302;2022-08-19T12:42:53;97590.34;;;36.67;28.73
29733;BME280;16643;43.158;25.302;2022-08-19T12:45:19;97579.44;;;36.73;28.21
29733;BME280;16643;43.158;25.302;2022-08-19T12:47:45;97584.66;;;36.75;28.18
29733;BME280;16643;43.158;25.302;2022-08-19T12:50:11;97606.34;;;36.93;27.85
29733;BME280;16643;43.158;25.302;2022-08-19T12:52:37;97611.31;;;36.78;27.14
29733;BME280;16643;43.158;25.302;2022-08-19T12:55:05;97607.56;;;36.54;27.45
29733;BME280;16643;43.158;25.302;2022-08-19T12:57:31;97612.09;;;36.60;27.18
29733;BME280;16643;43.158;25.302;2022-08-19T13:00:12;97586.63;;;35.93;27.66
29733;BME280;16643;43.158;25.302;2022-08-19T13:02:44;97612.06;;;36.17;28.26
29733;BME280;16643;43.158;25.302;2022-08-19T13:05:14;97609.81;;;36.57;27.98